sensor_id;sensor_type;location;lat;lon;timestamp;pressure;altitude;pressure_sealevel;temperature;humidity
49999;BME280;68071;45.062;7.356;2023-07-13T00:02:20;94967.13;;;18.63;100.00
49999;BME280;68071;45.062;7.356;2023-07-13T00:05:24;94969.31;;;18.68;100.00
49999;BME280;68071;45.062;7.356;2023-07-13T00:08:30;94973.66;;;18.87;100.00
49999;BME280;68071;45.062;7.356;2023-07-13T00:11:36;94964.47;;;18.87;100.00
49999;BME280;68071;45.062;7.356;2023-07-13T00:14:40;94975.03;;;18.83;100.00
49999;BME280;68071;45.062;7.356;2023-07-13T00:17:44;94983.31;;;18.96;100.00
49999;BME280;68071;45.062;7.356;2023-07-13T00:20:48;94986.56;;;19.03;100.00
49999;BME280;68071;45.062;7.356;2023-07-13T00:23:53;94975.06;;;19.01;100.00
49999;BME280;68071;45.062;7.356;2023-07-13T00:30:01;94973.66;;;19.15;100.00
49999;BME280;68071;45.062;7.356;2023-07-13T00:33:06;94970.97;;;19.30;100.00
49999;BME280;68071;45.062;7.356;2023-07-13T00:36:12;94974.03;;;19.51;100.00
49999;BME280;68071;45.062;7.356;2023-07-13T00:39:17;94976.50;;;19.58;100.00
49999;BME280;68071;45.062;7.356;2023-07-13T00:42:21;94972.13;;;19.67;100.00
49999;BME280;68071;45.062;7.356;2023-07-13T00:48:31;94984.28;;;19.63;100.00
49999;BME280;68071;45.062;7.356;2023-07-13T00:51:45;94981.94;;;19.62;100.00
49999;BME280;68071;45.062;7.356;2023-07-13T00:54:51;94983.63;;;19.69;100.00
49999;BME280;68071;45.062;7.356;2023-07-13T00:57:56;94981.28;;;19.76;100.00
49999;BME280;68071;45.062;7.356;2023-07-13T01:01:00;94981.09;;;19.80;100.00
49999;BME280;68071;45.062;7.356;2023-07-13T01:04:05;94986.75;;;19.71;100.00
49999;BME280;68071;45.062;7.356;2023-07-13T01:07:12;94989.56;;;19.61;100.00
49999;BME280;68071;45.062;7.356;2023-07-13T01:10:16;94986.00;;;19.61;100.00
49999;BME280;68071;45.062;7.356;2023-07-13T01:13:21;94986.69;;;19.46;100.00
49999;BME280;68071;45.062;7.356;2023-07-13T01:16:29;94981.56;;;19.35;100.00
49999;BME280;68071;45.062;7.356;2023-07-13T01:19:39;94976.28;;;19.28;100.00
49999;BME280;68071;45.062;7.356;2023-07-13T01:22:44;94975.53;;;19.09;100.00
49999;BME280;68071;45.062;7.356;2023-07-13T01:25:48;94974.44;;;19.16;100.00
49999;BME280;68071;45.062;7.356;2023-07-13T01:28:52;94973.97;;;19.17;100.00
49999;BME280;68071;45.062;7.356;2023-07-13T01:31:57;94970.97;;;19.30;100.00
49999;BME280;68071;45.062;7.356;2023-07-13T01:35:03;94970.50;;;19.41;100.00
49999;BME280;68071;45.062;7.356;2023-07-13T01:38:08;94971.41;;;19.47;100.00
49999;BME280;68071;45.062;7.356;2023-07-13T01:41:13;94971.50;;;19.62;100.00
49999;BME280;68071;45.062;7.356;2023-07-13T01:44:17;94978.72;;;19.45;100.00
49999;BME280;68071;45.062;7.356;2023-07-13T01:47:22;94974.66;;;19.55;100.00
49999;BME280;68071;45.062;7.356;2023-07-13T01:50:26;94977.59;;;19.61;100.00
49999;BME280;68071;45.062;7.356;2023-07-13T01:53:30;94982.31;;;19.45;100.00
49999;BME280;68071;45.062;7.356;2023-07-13T01:56:35;94988.63;;;19.64;100.00
49999;BME280;68071;45.062;7.356;2023-07-13T01:59:39;94990.66;;;19.64;100.00
49999;BME280;68071;45.062;7.356;2023-07-13T02:02:44;94985.31;;;19.32;100.00
49999;BME280;68071;45.062;7.356;2023-07-13T02:05:48;94977.97;;;19.35;100.00
49999;BME280;68071;45.062;7.356;2023-07-13T02:08:52;94975.59;;;19.43;100.00
49999;BME280;68071;45.062;7.356;2023-07-13T02:11:56;94967.13;;;19.09;100.00
49999;BME280;68071;45.062;7.356;2023-07-13T02:15:01;94970.06;;;19.05;100.00
49999;BME280;68071;45.062;7.356;2023-07-13T02:18:05;94974.47;;;18.97;100.00
49999;BME280;68071;45.062;7.356;2023-07-13T02:21:09;94979.28;;;19.06;100.00
49999;BME280;68071;45.062;7.356;2023-07-13T02:24:13;94972.25;;;19.01;100.00
49999;BME280;68071;45.062;7.356;2023-07-13T02:27:21;94974.44;;;19.07;100.00
49999;BME280;68071;45.062;7.356;2023-07-13T02:30:27;94970.22;;;19.11;100.00
49999;BME280;68071;45.062;7.356;2023-07-13T02:33:33;94975.22;;;18.79;100.00
49999;BME280;68071;45.062;7.356;2023-07-13T02:36:38;94971.19;;;18.71;100.00
49999;BME280;68071;45.062;7.356;2023-07-13T02:39:41;94971.94;;;18.71;100.00
49999;BME280;68071;45.062;7.356;2023-07-13T02:42:45;94975.53;;;18.72;100.00
49999;BME280;68071;45.062;7.356;2023-07-13T02:45:49;94980.34;;;18.71;100.00
49999;BME280;68071;45.062;7.356;2023-07-13T02:48:55;94986.25;;;18.64;100.00
49999;BME280;68071;45.062;7.356;2023-07-13T02:51:58;94974.88;;;18.58;100.00
49999;BME280;68071;45.062;7.356;2023-07-13T02:55:03;94978.63;;;18.74;100.00
49999;BME280;68071;45.062;7.356;2023-07-13T02:58:07;94977.53;;;18.71;100.00
49999;BME280;68071;45.062;7.356;2023-07-13T03:01:11;94980.16;;;18.38;100.00
49999;BME280;68071;45.062;7.356;2023-07-13T03:04:16;94980.63;;;18.64;100.00
49999;BME280;68071;45.062;7.356;2023-07-13T03:07:24;94983.75;;;18.85;100.00
49999;BME280;68071;45.062;7.356;2023-07-13T03:10:29;94981.91;;;18.72;100.00
49999;BME280;68071;45.062;7.356;2023-07-13T03:13:34;94980.97;;;18.75;100.00
49999;BME280;68071;45.062;7.356;2023-07-13T03:16:40;94985.16;;;18.80;100.00
49999;BME280;68071;45.062;7.356;2023-07-13T03:19:44;94979.53;;;18.43;100.00
49999;BME280;68071;45.062;7.356;2023-07-13T03:22:49;94982.16;;;18.28;100.00
49999;BME280;68071;45.062;7.356;2023-07-13T03:26:16;94983.50;;;18.05;100.00
49999;BME280;68071;45.062;7.356;2023-07-13T03:29:21;94989.69;;;17.99;100.00
49999;BME280;68071;45.062;7.356;2023-07-13T03:32:25;94992.44;;;17.90;100.00
49999;BME280;68071;45.062;7.356;2023-07-13T03:35:29;94986.94;;;17.68;100.00
49999;BME280;68071;45.062;7.356;2023-07-13T03:38:34;94993.94;;;17.73;100.00
49999;BME280;68071;45.062;7.356;2023-07-13T03:41:40;94993.22;;;17.91;100.00
49999;BME280;68071;45.062;7.356;2023-07-13T03:44:44;94987.94;;;17.52;100.00
49999;BME280;68071;45.062;7.356;2023-07-13T03:47:54;94999.16;;;17.30;100.00
49999;BME280;68071;45.062;7.356;2023-07-13T03:50:59;94996.97;;;17.56;100.00
49999;BME280;68071;45.062;7.356;2023-07-13T03:54:04;95005.53;;;17.62;100.00
49999;BME280;68071;45.062;7.356;2023-07-13T03:57:09;95009.28;;;17.14;100.00
49999;BME280;68071;45.062;7.356;2023-07-13T04:00:14;95013.00;;;17.11;100.00
49999;BME280;68071;45.062;7.356;2023-07-13T04:03:23;95016.69;;;17.08;100.00
49999;BME280;68071;45.062;7.356;2023-07-13T04:06:29;95011.06;;;17.21;100.00
49999;BME280;68071;45.062;7.356;2023-07-13T04:09:34;95015.47;;;17.09;100.00
49999;BME280;68071;45.062;7.356;2023-07-13T04:12:38;95018.56;;;17.33;100.00
49999;BME280;68071;45.062;7.356;2023-07-13T04:15:42;95021.41;;;17.43;100.00
49999;BME280;68071;45.062;7.356;2023-07-13T04:18:49;95017.41;;;17.21;100.00
49999;BME280;68071;45.062;7.356;2023-07-13T04:21:54;95009.16;;;17.49;100.00
49999;BME280;68071;45.062;7.356;2023-07-13T04:24:58;95007.91;;;17.41;100.00
49999;BME280;68071;45.062;7.356;2023-07-13T04:28:03;95006.81;;;17.38;100.00
49999;BME280;68071;45.062;7.356;2023-07-13T04:31:07;95011.34;;;17.45;100.00
49999;BME280;68071;45.062;7.356;2023-07-13T04:34:11;95013.69;;;17.78;100.00
49999;BME280;68071;45.062;7.356;2023-07-13T04:37:15;95012.50;;;17.57;100.00
49999;BME280;68071;45.062;7.356;2023-07-13T04:40:20;95020.03;;;17.79;100.00
49999;BME280;68071;45.062;7.356;2023-07-13T04:43:25;95024.84;;;18.10;100.00
49999;BME280;68071;45.062;7.356;2023-07-13T04:46:29;95028.25;;;17.73;100.00
49999;BME280;68071;45.062;7.356;2023-07-13T04:49:33;95025.63;;;17.47;100.00
49999;BME280;68071;45.062;7.356;2023-07-13T04:52:37;95019.66;;;17.36;100.00
49999;BME280;68071;45.062;7.356;2023-07-13T04:55:42;95023.28;;;17.46;100.00
49999;BME280;68071;45.062;7.356;2023-07-13T04:58:46;95025.34;;;17.54;100.00
49999;BME280;68071;45.062;7.356;2023-07-13T05:01:50;95019.03;;;17.63;100.00
49999;BME280;68071;45.062;7.356;2023-07-13T05:04:54;95016.69;;;17.93;100.00
49999;BME280;68071;45.062;7.356;2023-07-13T05:07:58;95021.75;;;18.08;100.00
49999;BME280;68071;45.062;7.356;2023-07-13T05:11:04;95014.75;;;18.03;100.00
49999;BME280;68071;45.062;7.356;2023-07-13T05:14:08;95008.91;;;17.88;100.00
49999;BME280;68071;45.062;7.356;2023-07-13T05:17:13;95009.66;;;17.89;100.00
49999;BME280;68071;45.062;7.356;2023-07-13T05:20:18;95019.44;;;18.16;100.00
49999;BME280;68071;45.062;7.356;2023-07-13T05:23:22;95004.06;;;18.20;100.00
49999;BME280;68071;45.062;7.356;2023-07-13T05:26:26;95006.22;;;18.16;100.00
49999;BME280;68071;45.062;7.356;2023-07-13T05:29:30;95016.63;;;18.16;100.00
49999;BME280;68071;45.062;7.356;2023-07-13T05:32:34;94999.16;;;18.52;100.00
49999;BME280;68071;45.062;7.356;2023-07-13T05:35:39;94998.22;;;18.74;100.00
49999;BME280;68071;45.062;7.356;2023-07-13T05:38:43;95000.56;;;19.03;100.00
49999;BME280;68071;45.062;7.356;2023-07-13T05:41:48;94999.31;;;19.32;100.00
49999;BME280;68071;45.062;7.356;2023-07-13T05:44:52;95005.63;;;19.52;100.00
49999;BME280;68071;45.062;7.356;2023-07-13T05:47:56;95000.59;;;19.74;100.00
49999;BME280;68071;45.062;7.356;2023-07-13T05:51:00;95007.34;;;19.58;100.00
49999;BME280;68071;45.062;7.356;2023-07-13T05:54:04;95006.91;;;19.41;100.00
49999;BME280;68071;45.062;7.356;2023-07-13T05:57:08;95003.63;;;19.43;100.00
49999;BME280;68071;45.062;7.356;2023-07-13T06:00:12;94999.63;;;19.25;100.00
49999;BME280;68071;45.062;7.356;2023-07-13T06:03:17;95003.00;;;19.48;100.00
49999;BME280;68071;45.062;7.356;2023-07-13T06:06:21;94996.28;;;19.64;100.00
49999;BME280;68071;45.062;7.356;2023-07-13T06:09:25;94996.41;;;20.13;100.00
49999;BME280;68071;45.062;7.356;2023-07-13T06:12:29;94993.78;;;20.09;100.00
49999;BME280;68071;45.062;7.356;2023-07-13T06:15:33;95001.50;;;20.48;100.00
49999;BME280;68071;45.062;7.356;2023-07-13T06:18:37;95004.72;;;20.31;100.00
49999;BME280;68071;45.062;7.356;2023-07-13T06:21:42;95004.31;;;20.23;100.00
49999;BME280;68071;45.062;7.356;2023-07-13T06:24:47;94999.66;;;20.45;100.00
49999;BME280;68071;45.062;7.356;2023-07-13T06:27:51;95005.88;;;20.97;100.00
49999;BME280;68071;45.062;7.356;2023-07-13T06:30:55;95012.59;;;21.30;100.00
49999;BME280;68071;45.062;7.356;2023-07-13T06:33:59;95014.44;;;21.33;100.00
49999;BME280;68071;45.062;7.356;2023-07-13T06:37:04;95012.72;;;21.36;100.00
49999;BME280;68071;45.062;7.356;2023-07-13T06:40:08;95013.56;;;21.42;100.00
49999;BME280;68071;45.062;7.356;2023-07-13T06:43:13;95023.94;;;21.21;100.00
49999;BME280;68071;45.062;7.356;2023-07-13T06:46:16;95027.47;;;21.45;100.00
49999;BME280;68071;45.062;7.356;2023-07-13T06:49:20;95027.00;;;21.62;100.00
49999;BME280;68071;45.062;7.356;2023-07-13T06:52:24;95030.00;;;21.88;100.00
49999;BME280;68071;45.062;7.356;2023-07-13T06:55:28;95031.56;;;21.74;100.00
49999;BME280;68071;45.062;7.356;2023-07-13T06:58:33;95030.97;;;21.55;100.00
49999;BME280;68071;45.062;7.356;2023-07-13T07:01:37;95033.69;;;21.65;100.00
49999;BME280;68071;45.062;7.356;2023-07-13T07:04:41;95040.84;;;22.11;100.00
49999;BME280;68071;45.062;7.356;2023-07-13T07:07:45;95040.59;;;21.79;100.00
49999;BME280;68071;45.062;7.356;2023-07-13T07:10:49;95042.41;;;21.97;100.00
49999;BME280;68071;45.062;7.356;2023-07-13T07:13:57;95044.69;;;22.13;100.00
49999;BME280;68071;45.062;7.356;2023-07-13T07:17:01;95050.25;;;22.08;100.00
49999;BME280;68071;45.062;7.356;2023-07-13T07:20:06;95052.28;;;22.22;100.00
49999;BME280;68071;45.062;7.356;2023-07-13T07:23:10;95055.91;;;22.58;100.00
49999;BME280;68071;45.062;7.356;2023-07-13T07:26:14;95052.38;;;22.63;100.00
49999;BME280;68071;45.062;7.356;2023-07-13T07:29:19;95054.84;;;22.56;100.00
49999;BME280;68071;45.062;7.356;2023-07-13T07:32:23;95053.88;;;22.44;100.00
49999;BME280;68071;45.062;7.356;2023-07-13T07:35:27;95050.72;;;22.72;100.00
49999;BME280;68071;45.062;7.356;2023-07-13T07:38:31;95052.25;;;22.73;100.00
49999;BME280;68071;45.062;7.356;2023-07-13T07:41:36;95050.28;;;22.58;100.00
49999;BME280;68071;45.062;7.356;2023-07-13T07:44:40;95053.91;;;23.21;100.00
49999;BME280;68071;45.062;7.356;2023-07-13T07:47:44;95056.47;;;23.71;95.38
49999;BME280;68071;45.062;7.356;2023-07-13T07:50:48;95050.91;;;23.09;100.00
49999;BME280;68071;45.062;7.356;2023-07-13T07:53:52;95057.06;;;22.51;100.00
49999;BME280;68071;45.062;7.356;2023-07-13T07:56:56;95049.78;;;22.60;99.38
49999;BME280;68071;45.062;7.356;2023-07-13T08:00:00;95067.28;;;22.49;97.59
49999;BME280;68071;45.062;7.356;2023-07-13T08:03:04;95058.63;;;22.52;100.00
49999;BME280;68071;45.062;7.356;2023-07-13T08:06:08;95066.22;;;23.03;99.80
49999;BME280;68071;45.062;7.356;2023-07-13T08:09:12;95069.84;;;23.24;99.08
49999;BME280;68071;45.062;7.356;2023-07-13T08:12:16;95072.66;;;23.71;93.07
49999;BME280;68071;45.062;7.356;2023-07-13T08:15:20;95068.03;;;24.32;99.23
49999;BME280;68071;45.062;7.356;2023-07-13T08:18:24;95076.47;;;25.02;86.71
49999;BME280;68071;45.062;7.356;2023-07-13T08:21:28;95077.78;;;24.63;87.36
49999;BME280;68071;45.062;7.356;2023-07-13T08:24:32;95083.84;;;24.50;88.92
49999;BME280;68071;45.062;7.356;2023-07-13T08:27:36;95077.66;;;24.84;84.73
49999;BME280;68071;45.062;7.356;2023-07-13T08:30:40;95078.38;;;23.82;93.60
49999;BME280;68071;45.062;7.356;2023-07-13T08:33:44;95084.75;;;24.04;99.33
49999;BME280;68071;45.062;7.356;2023-07-13T08:36:48;95084.22;;;24.69;86.75
49999;BME280;68071;45.062;7.356;2023-07-13T08:39:52;95085.25;;;24.34;95.04
49999;BME280;68071;45.062;7.356;2023-07-13T08:42:58;95086.53;;;24.65;90.35
49999;BME280;68071;45.062;7.356;2023-07-13T08:49:30;95089.00;;;23.40;94.34
49999;BME280;68071;45.062;7.356;2023-07-13T08:52:40;95086.09;;;24.08;93.14
49999;BME280;68071;45.062;7.356;2023-07-13T08:55:45;95099.56;;;24.57;91.03
49999;BME280;68071;45.062;7.356;2023-07-13T08:59:05;95104.72;;;23.74;95.95
49999;BME280;68071;45.062;7.356;2023-07-13T09:05:30;95108.59;;;23.76;92.90
49999;BME280;68071;45.062;7.356;2023-07-13T09:09:04;95104.16;;;23.96;99.27
49999;BME280;68071;45.062;7.356;2023-07-13T09:12:22;95109.00;;;23.90;91.82
49999;BME280;68071;45.062;7.356;2023-07-13T09:15:31;95115.03;;;24.29;90.76
49999;BME280;68071;45.062;7.356;2023-07-13T09:18:43;95113.44;;;24.23;91.71
49999;BME280;68071;45.062;7.356;2023-07-13T09:21:49;95115.25;;;24.58;91.91
49999;BME280;68071;45.062;7.356;2023-07-13T09:25:05;95108.81;;;23.72;92.77
49999;BME280;68071;45.062;7.356;2023-07-13T09:28:18;95115.88;;;24.73;92.00
49999;BME280;68071;45.062;7.356;2023-07-13T09:31:33;95122.53;;;25.08;87.84
49999;BME280;68071;45.062;7.356;2023-07-13T09:34:40;95116.72;;;25.29;87.90
49999;BME280;68071;45.062;7.356;2023-07-13T09:37:45;95119.53;;;25.29;85.04
49999;BME280;68071;45.062;7.356;2023-07-13T09:41:04;95114.25;;;24.61;92.32
49999;BME280;68071;45.062;7.356;2023-07-13T09:44:27;95109.97;;;24.39;93.11
49999;BME280;68071;45.062;7.356;2023-07-13T09:47:39;95113.63;;;23.93;100.00
49999;BME280;68071;45.062;7.356;2023-07-13T09:50:44;95117.19;;;24.78;93.19
49999;BME280;68071;45.062;7.356;2023-07-13T09:53:49;95122.59;;;25.25;90.65
49999;BME280;68071;45.062;7.356;2023-07-13T09:56:57;95113.97;;;24.27;96.31
49999;BME280;68071;45.062;7.356;2023-07-13T10:00:02;95113.44;;;24.92;91.58
49999;BME280;68071;45.062;7.356;2023-07-13T10:03:22;95110.09;;;25.43;88.73
49999;BME280;68071;45.062;7.356;2023-07-13T10:06:26;95117.84;;;25.48;89.62
49999;BME280;68071;45.062;7.356;2023-07-13T10:09:31;95114.69;;;25.41;89.21
49999;BME280;68071;45.062;7.356;2023-07-13T10:12:36;95123.13;;;24.80;95.03
49999;BME280;68071;45.062;7.356;2023-07-13T10:15:40;95127.78;;;25.32;91.79
49999;BME280;68071;45.062;7.356;2023-07-13T10:18:46;95128.81;;;26.12;82.06
49999;BME280;68071;45.062;7.356;2023-07-13T10:21:56;95128.28;;;26.08;84.61
49999;BME280;68071;45.062;7.356;2023-07-13T10:25:12;95126.97;;;25.81;85.52
49999;BME280;68071;45.062;7.356;2023-07-13T10:28:28;95119.63;;;24.27;87.19
49999;BME280;68071;45.062;7.356;2023-07-13T10:31:34;95130.31;;;23.44;93.28
49999;BME280;68071;45.062;7.356;2023-07-13T10:34:43;95125.19;;;24.80;89.79
49999;BME280;68071;45.062;7.356;2023-07-13T10:38:06;95128.28;;;25.31;90.29
49999;BME280;68071;45.062;7.356;2023-07-13T10:41:15;95133.81;;;25.51;89.25
49999;BME280;68071;45.062;7.356;2023-07-13T10:44:28;95120.34;;;26.41;86.80
49999;BME280;68071;45.062;7.356;2023-07-13T10:47:33;95119.56;;;26.75;83.54
49999;BME280;68071;45.062;7.356;2023-07-13T10:50:40;95125.50;;;26.71;85.42
49999;BME280;68071;45.062;7.356;2023-07-13T10:53:47;95131.88;;;27.17;80.78
49999;BME280;68071;45.062;7.356;2023-07-13T10:57:06;95123.59;;;27.25;77.34
49999;BME280;68071;45.062;7.356;2023-07-13T11:00:18;95121.63;;;26.80;80.64
49999;BME280;68071;45.062;7.356;2023-07-13T11:03:22;95117.72;;;26.09;93.13
49999;BME280;68071;45.062;7.356;2023-07-13T11:06:41;95122.88;;;27.07;82.86
49999;BME280;68071;45.062;7.356;2023-07-13T11:09:53;95125.41;;;27.28;81.50
49999;BME280;68071;45.062;7.356;2023-07-13T11:12:58;95119.94;;;27.36;79.44
49999;BME280;68071;45.062;7.356;2023-07-13T11:16:13;95111.84;;;26.47;83.49
49999;BME280;68071;45.062;7.356;2023-07-13T11:22:40;95099.34;;;25.59;88.23
49999;BME280;68071;45.062;7.356;2023-07-13T11:25:45;95104.78;;;25.74;87.77
49999;BME280;68071;45.062;7.356;2023-07-13T11:28:51;95114.94;;;26.43;83.09
49999;BME280;68071;45.062;7.356;2023-07-13T11:31:56;95106.09;;;25.78;81.81
49999;BME280;68071;45.062;7.356;2023-07-13T11:35:02;95107.09;;;25.09;85.49
49999;BME280;68071;45.062;7.356;2023-07-13T11:38:15;95105.28;;;25.66;85.28
49999;BME280;68071;45.062;7.356;2023-07-13T11:41:34;95101.44;;;25.75;84.25
49999;BME280;68071;45.062;7.356;2023-07-13T11:44:44;95095.91;;;24.51;92.77
49999;BME280;68071;45.062;7.356;2023-07-13T11:47:49;95094.63;;;24.84;89.50
49999;BME280;68071;45.062;7.356;2023-07-13T11:50:59;95081.22;;;25.33;86.66
49999;BME280;68071;45.062;7.356;2023-07-13T11:58:00;95074.75;;;26.27;86.59
49999;BME280;68071;45.062;7.356;2023-07-13T12:01:05;95077.34;;;26.20;83.73
49999;BME280;68071;45.062;7.356;2023-07-13T12:04:20;95079.31;;;26.99;77.90
49999;BME280;68071;45.062;7.356;2023-07-13T12:07:29;95085.06;;;26.53;82.60
49999;BME280;68071;45.062;7.356;2023-07-13T12:10:34;95077.56;;;26.73;80.62
49999;BME280;68071;45.062;7.356;2023-07-13T12:13:38;95074.91;;;27.09;77.54
49999;BME280;68071;45.062;7.356;2023-07-13T12:16:43;95075.75;;;26.64;87.74
49999;BME280;68071;45.062;7.356;2023-07-13T12:19:49;95082.56;;;27.31;77.67
49999;BME280;68071;45.062;7.356;2023-07-13T12:22:54;95081.75;;;27.37;79.84
49999;BME280;68071;45.062;7.356;2023-07-13T12:26:01;95074.28;;;28.29;77.20
49999;BME280;68071;45.062;7.356;2023-07-13T12:29:06;95065.16;;;28.91;77.11
49999;BME280;68071;45.062;7.356;2023-07-13T12:32:17;95068.78;;;28.36;76.26
49999;BME280;68071;45.062;7.356;2023-07-13T12:35:21;95067.38;;;28.49;70.71
49999;BME280;68071;45.062;7.356;2023-07-13T12:38:25;95071.03;;;27.12;75.75
49999;BME280;68071;45.062;7.356;2023-07-13T12:41:30;95067.81;;;26.46;88.16
49999;BME280;68071;45.062;7.356;2023-07-13T12:44:34;95054.31;;;26.97;87.22
49999;BME280;68071;45.062;7.356;2023-07-13T12:47:48;95064.03;;;27.72;78.23
49999;BME280;68071;45.062;7.356;2023-07-13T12:50:54;95068.56;;;27.51;78.68
49999;BME280;68071;45.062;7.356;2023-07-13T12:54:18;95060.97;;;27.11;78.38
49999;BME280;68071;45.062;7.356;2023-07-13T12:57:23;95066.97;;;27.97;73.25
49999;BME280;68071;45.062;7.356;2023-07-13T13:00:37;95065.34;;;27.71;77.47
49999;BME280;68071;45.062;7.356;2023-07-13T13:03:48;95062.03;;;28.03;71.89
49999;BME280;68071;45.062;7.356;2023-07-13T13:07:02;95061.78;;;27.65;76.58
49999;BME280;68071;45.062;7.356;2023-07-13T13:10:13;95062.84;;;28.34;73.35
49999;BME280;68071;45.062;7.356;2023-07-13T13:13:17;95066.59;;;27.23;79.63
49999;BME280;68071;45.062;7.356;2023-07-13T13:16:37;95056.59;;;27.10;80.36
49999;BME280;68071;45.062;7.356;2023-07-13T13:19:42;95053.59;;;26.57;80.26
49999;BME280;68071;45.062;7.356;2023-07-13T13:22:46;95054.59;;;26.82;79.78
49999;BME280;68071;45.062;7.356;2023-07-13T13:25:51;95066.00;;;27.41;80.84
49999;BME280;68071;45.062;7.356;2023-07-13T13:28:55;95059.38;;;27.22;81.62
49999;BME280;68071;45.062;7.356;2023-07-13T13:31:58;95044.88;;;28.20;75.49
49999;BME280;68071;45.062;7.356;2023-07-13T13:35:03;95046.63;;;27.45;79.86
49999;BME280;68071;45.062;7.356;2023-07-13T13:38:15;95057.31;;;27.16;79.52
49999;BME280;68071;45.062;7.356;2023-07-13T13:41:20;95057.06;;;27.73;75.89
49999;BME280;68071;45.062;7.356;2023-07-13T13:44:23;95049.31;;;27.74;78.96
49999;BME280;68071;45.062;7.356;2023-07-13T13:47:31;95045.66;;;27.85;76.37
49999;BME280;68071;45.062;7.356;2023-07-13T13:50:37;95037.19;;;28.15;73.37
49999;BME280;68071;45.062;7.356;2023-07-13T13:53:41;95044.38;;;27.32;76.02
49999;BME280;68071;45.062;7.356;2023-07-13T13:56:46;95045.66;;;27.31;79.86
49999;BME280;68071;45.062;7.356;2023-07-13T13:59:51;95044.31;;;26.85;82.52
49999;BME280;68071;45.062;7.356;2023-07-13T14:02:56;95048.81;;;27.16;80.86
49999;BME280;68071;45.062;7.356;2023-07-13T14:06:01;95049.72;;;27.53;76.88
49999;BME280;68071;45.062;7.356;2023-07-13T14:09:09;95040.59;;;27.66;77.04
49999;BME280;68071;45.062;7.356;2023-07-13T14:12:14;95041.22;;;27.47;77.36
49999;BME280;68071;45.062;7.356;2023-07-13T14:18:28;95045.31;;;26.76;81.40
49999;BME280;68071;45.062;7.356;2023-07-13T14:21:33;95041.47;;;26.85;83.24
49999;BME280;68071;45.062;7.356;2023-07-13T14:24:37;95044.63;;;26.36;84.47
49999;BME280;68071;45.062;7.356;2023-07-13T14:27:42;95046.09;;;26.82;82.43
49999;BME280;68071;45.062;7.356;2023-07-13T14:30:47;95034.22;;;26.78;83.32
49999;BME280;68071;45.062;7.356;2023-07-13T14:33:52;95030.69;;;25.92;88.90
49999;BME280;68071;45.062;7.356;2023-07-13T14:36:56;95028.31;;;26.70;86.83
49999;BME280;68071;45.062;7.356;2023-07-13T14:40:00;95028.88;;;27.81;81.76
49999;BME280;68071;45.062;7.356;2023-07-13T14:43:04;95024.69;;;27.46;77.05
49999;BME280;68071;45.062;7.356;2023-07-13T14:46:21;95028.00;;;27.02;79.04
49999;BME280;68071;45.062;7.356;2023-07-13T14:49:31;95035.19;;;27.09;79.03
49999;BME280;68071;45.062;7.356;2023-07-13T14:52:36;95018.34;;;27.23;77.51
49999;BME280;68071;45.062;7.356;2023-07-13T14:55:40;95020.34;;;26.69;81.03
49999;BME280;68071;45.062;7.356;2023-07-13T14:58:46;95018.81;;;26.51;81.40
49999;BME280;68071;45.062;7.356;2023-07-13T15:01:51;95017.47;;;26.86;80.36
49999;BME280;68071;45.062;7.356;2023-07-13T15:04:55;95014.16;;;26.82;80.16
49999;BME280;68071;45.062;7.356;2023-07-13T15:08:00;95024.56;;;27.21;79.26
49999;BME280;68071;45.062;7.356;2023-07-13T15:11:07;95025.16;;;27.56;78.37
49999;BME280;68071;45.062;7.356;2023-07-13T15:14:11;95033.03;;;28.72;72.41
49999;BME280;68071;45.062;7.356;2023-07-13T15:17:36;95030.75;;;29.39;67.52
49999;BME280;68071;45.062;7.356;2023-07-13T15:20:41;95021.44;;;29.96;61.49
49999;BME280;68071;45.062;7.356;2023-07-13T15:23:45;95035.16;;;30.11;62.63
49999;BME280;68071;45.062;7.356;2023-07-13T15:26:49;95026.88;;;29.36;65.21
49999;BME280;68071;45.062;7.356;2023-07-13T15:29:53;95031.50;;;29.39;66.47
49999;BME280;68071;45.062;7.356;2023-07-13T15:33:00;95033.47;;;29.25;66.51
49999;BME280;68071;45.062;7.356;2023-07-13T15:36:06;95033.63;;;29.14;68.78
49999;BME280;68071;45.062;7.356;2023-07-13T15:39:15;95032.34;;;28.90;70.59
49999;BME280;68071;45.062;7.356;2023-07-13T15:42:22;95038.69;;;28.77;68.20
49999;BME280;68071;45.062;7.356;2023-07-13T15:45:26;95037.69;;;27.77;73.20
49999;BME280;68071;45.062;7.356;2023-07-13T15:48:30;95034.97;;;27.55;75.26
49999;BME280;68071;45.062;7.356;2023-07-13T15:51:34;95038.78;;;27.69;72.39
49999;BME280;68071;45.062;7.356;2023-07-13T15:54:38;95033.16;;;26.98;78.88
49999;BME280;68071;45.062;7.356;2023-07-13T15:57:46;95039.03;;;27.12;80.15
49999;BME280;68071;45.062;7.356;2023-07-13T16:00:51;95034.59;;;27.28;86.65
49999;BME280;68071;45.062;7.356;2023-07-13T16:03:56;95037.78;;;28.02;74.06
49999;BME280;68071;45.062;7.356;2023-07-13T16:07:00;95032.78;;;28.45;75.40
49999;BME280;68071;45.062;7.356;2023-07-13T16:10:04;95032.97;;;28.52;74.06
49999;BME280;68071;45.062;7.356;2023-07-13T16:13:16;95038.72;;;28.72;74.44
49999;BME280;68071;45.062;7.356;2023-07-13T16:16:26;95035.91;;;28.41;83.09
49999;BME280;68071;45.062;7.356;2023-07-13T16:19:32;95042.47;;;28.86;76.39
49999;BME280;68071;45.062;7.356;2023-07-13T16:22:38;95039.97;;;29.45;72.96
49999;BME280;68071;45.062;7.356;2023-07-13T16:25:43;95049.53;;;30.51;65.88
49999;BME280;68071;45.062;7.356;2023-07-13T16:28:48;95043.66;;;31.57;58.20
49999;BME280;68071;45.062;7.356;2023-07-13T16:31:59;95043.50;;;30.55;60.57
49999;BME280;68071;45.062;7.356;2023-07-13T16:35:05;95053.41;;;31.75;54.75
49999;BME280;68071;45.062;7.356;2023-07-13T16:38:19;95059.38;;;32.33;50.27
49999;BME280;68071;45.062;7.356;2023-07-13T16:41:23;95049.94;;;32.88;48.67
49999;BME280;68071;45.062;7.356;2023-07-13T16:44:29;95050.03;;;33.03;49.23